Mona, UT (84645)

20:00 MDT le 24 septembre 2016 (GMT -0600)
Elberta | | Change Station

Alt. 4741 ft 39.94 °N, 111.96 °W | Updated 9 minutes ago

Clear
Ciel dégagé
54.9 ° F
Paraît 54.9 ° F
N
0.0
Vent Variable Vent de Ouest

Aujourd'hui
Haut(e) -- | Bas -- ° F
--% Risque de précip.
Hier
Haut(e) -- | Bas -- ° F
Precip. -- pouce
Pression 30.30 pouce
Visibilité 10.0 Miles terrestres
Nuages Ciel dégagé
Point de rosée 44 ° F
Humidité 66%
Précipitations 0.09 pouce
Profondeur de la couche neigeuse Non disponible.
7:17 AM 7:20 PM
Lune descendante, 32% visible
METAR KPVU 250156Z 14004KT 10SM CLR 12/07 A3033 RMK AO2 SLP258 T01220067
Pression 30.30 pouce
Visibilité 10.0 Miles terrestres
Nuages Ciel dégagé
Point de rosée 44 ° F
Humidité 66%
Précipitations 0.09 pouce
Profondeur de la couche neigeuse Non disponible.
7:17 AM 7:20 PM
Lune descendante, 32% visible
METAR KPVU 250156Z 14004KT 10SM CLR 12/07 A3033 RMK AO2 SLP258 T01220067

10-Day Weather Forecast

Almanac

Astronomie

Sep. 24, 2016 Lever Coucher
Temps réel
Crépuscule civil
Crépuscule nautique
Crépuscule astronomique
Lune
Durée de lumière visible
Longueur du jour
Tomorrow will be .
, % of the Moon is Illuminated

Extrêmes aujourd'hui

State Highs State Lows

Community

WunderPhotos

Upload Photos

1,941,519 Photos téléchargées !

WunderBlog® & News

Nearby

Qualité de l'air

  Qualité de l'air Indice de la qualité de l'air Polluant
Not available.

Épaisseur de neige

Station Depth Altitude

Activité sismique

Ville Distance Mag. Time & Date
Minimum magnitude displayed is 2.5.

Températures des eaux côtières

Lieu Température

Stations

Stations météo à proximité

Emplacement de la station Température Refroidissement éolien Point de rosée Humidité Vent Precip. Alt. Mise à jour Type
                   

Watches & Warnings

There are currently no watches in effect.